Time;durP1;ratioP1;P1;durP2;ratioP2;P2;SDS_P1;SDS_P2;PMS_P1;PMS_P2;Temp;Humidity;BMP_temperature;BMP_pressure;BME280_temperature;BME280_humidity;BME280_pressure;Samples;Min_cycle;Max_cycle;Signal;HPM_P1;HPM_P2
2022/07/19 00:01:50;;;;;;;9.63;5.10;;;21.70;99.90;;;;;;5079097;28;20048;-75
2022/07/19 00:04:16;;;;;;;11.73;5.25;;;21.70;99.90;;;;;;5079216;28;20049;-75
2022/07/19 00:06:41;;;;;;;8.45;4.88;;;21.70;99.90;;;;;;5079453;28;20047;-75
2022/07/19 00:09:08;;;;;;;8.35;4.78;;;21.70;99.90;;;;;;5079346;28;20044;-75
2022/07/19 00:11:33;;;;;;;9.88;5.00;;;21.60;99.90;;;;;;5079264;28;20054;-75
2022/07/19 00:13:59;;;;;;;9.73;5.30;;;21.50;99.90;;;;;;5079383;28;20389;-76
2022/07/19 00:16:25;;;;;;;10.88;6.00;;;21.30;99.90;;;;;;5078324;28;20322;-76
2022/07/19 00:18:51;;;;;;;7.85;5.55;;;21.30;99.90;;;;;;5078361;28;20325;-75
2022/07/19 00:21:16;;;;;;;10.02;5.72;;;21.30;99.90;;;;;;5079201;28;20417;-75
2022/07/19 00:23:42;;;;;;;9.93;5.32;;;21.30;99.90;;;;;;5079245;28;20174;-74
2022/07/19 00:26:08;;;;;;;10.50;5.97;;;21.30;99.90;;;;;;5079224;28;20174;-75
2022/07/19 00:28:33;;;;;;;10.40;5.85;;;21.20;99.90;;;;;;5079145;28;20044;-75
2022/07/19 00:30:59;;;;;;;9.10;5.60;;;21.20;99.90;;;;;;5077786;28;20425;-75
2022/07/19 00:33:25;;;;;;;8.70;5.65;;;21.20;99.90;;;;;;5078677;28;20324;-75
2022/07/19 00:35:50;;;;;;;8.93;5.60;;;21.10;99.90;;;;;;5077958;28;20369;-75
2022/07/19 00:38:16;;;;;;;13.52;6.45;;;21.10;99.90;;;;;;5078644;28;20043;-75
2022/07/19 00:40:43;;;;;;;9.43;5.97;;;21.10;99.90;;;;;;5079030;28;20120;-75
2022/07/19 00:43:10;;;;;;;9.48;5.50;;;21.20;99.90;;;;;;5078735;28;20075;-75
2022/07/19 00:45:36;;;;;;;9.43;5.65;;;21.20;99.90;;;;;;5077648;28;20071;-75
2022/07/19 00:48:02;;;;;;;11.05;6.00;;;21.10;99.90;;;;;;5078684;28;20076;-75
2022/07/19 00:50:28;;;;;;;9.68;5.80;;;21.10;99.90;;;;;;5077715;28;20123;-75
2022/07/19 00:52:56;;;;;;;7.78;5.72;;;21.10;99.90;;;;;;5077500;28;20473;-75
2022/07/19 00:55:23;;;;;;;8.07;5.30;;;21.00;99.90;;;;;;5077587;28;20055;-75
2022/07/19 00:57:49;;;;;;;12.40;6.00;;;21.00;99.90;;;;;;5078611;28;20037;-75
2022/07/19 01:00:17;;;;;;;11.45;5.97;;;21.00;99.90;;;;;;5077356;28;20116;-75
2022/07/19 01:02:43;;;;;;;12.35;6.00;;;21.00;99.90;;;;;;5077944;28;20115;-75
2022/07/19 01:05:11;;;;;;;9.43;6.18;;;21.00;99.90;;;;;;5078288;28;20037;-75
2022/07/19 01:07:39;;;;;;;8.43;5.70;;;21.00;99.90;;;;;;5078348;28;20072;-75
2022/07/19 01:10:06;;;;;;;10.95;6.40;;;21.00;99.90;;;;;;5078365;28;20041;-75
2022/07/19 01:12:33;;;;;;;11.02;6.15;;;20.90;99.90;;;;;;5078007;28;20051;-76
2022/07/19 01:14:59;;;;;;;8.80;6.30;;;20.90;99.90;;;;;;5078376;28;20037;-75
2022/07/19 01:17:25;;;;;;;10.18;5.85;;;21.00;99.90;;;;;;5076892;28;20068;-75
2022/07/19 01:19:51;;;;;;;11.68;6.45;;;20.90;99.90;;;;;;5076929;28;20045;-75
2022/07/19 01:22:17;;;;;;;10.13;5.65;;;20.80;99.90;;;;;;5078112;28;20087;-75
2022/07/19 01:24:43;;;;;;;10.07;6.10;;;20.80;99.90;;;;;;5077879;28;20437;-76
2022/07/19 01:27:09;;;;;;;9.07;6.20;;;20.80;99.90;;;;;;5077672;28;20466;-76
2022/07/19 01:29:36;;;;;;;9.80;6.22;;;20.80;99.90;;;;;;5077743;28;20063;-75
2022/07/19 01:32:05;;;;;;;9.77;5.95;;;20.80;99.90;;;;;;5076363;28;20057;-75
2022/07/19 01:34:31;;;;;;;11.10;5.97;;;20.80;99.90;;;;;;5076563;28;20044;-75
2022/07/19 01:36:57;;;;;;;10.38;6.47;;;20.80;99.90;;;;;;5060172;28;20048;-75
2022/07/19 01:39:23;;;;;;;9.90;6.35;;;20.70;99.90;;;;;;5077509;28;20040;-75
2022/07/19 01:41:48;;;;;;;10.90;6.60;;;20.70;99.90;;;;;;5077853;28;20080;-75
2022/07/19 01:44:14;;;;;;;9.45;6.65;;;20.60;99.90;;;;;;5077560;28;20303;-75
2022/07/19 01:46:40;;;;;;;12.32;6.93;;;20.60;99.90;;;;;;5077701;28;20048;-75
2022/07/19 01:49:06;;;;;;;10.10;6.45;;;20.50;99.90;;;;;;5077323;28;20434;-75
2022/07/19 01:51:31;;;;;;;12.85;6.55;;;20.40;99.90;;;;;;5077180;28;20334;-74
2022/07/19 01:53:58;;;;;;;9.95;6.55;;;20.30;99.90;;;;;;5077519;28;20371;-75
2022/07/19 01:56:23;;;;;;;9.02;5.82;;;20.30;99.90;;;;;;5077105;28;20093;-75
2022/07/19 01:58:49;;;;;;;13.07;6.78;;;20.30;99.90;;;;;;5077471;28;20040;-75
2022/07/19 02:01:15;;;;;;;10.73;6.55;;;20.20;99.90;;;;;;5075909;28;20090;-76
2022/07/19 02:03:41;;;;;;;9.05;6.20;;;20.30;99.90;;;;;;5076171;28;20044;-75
2022/07/19 02:06:07;;;;;;;9.18;5.72;;;20.30;99.90;;;;;;5076934;28;20036;-75
2022/07/19 02:08:32;;;;;;;9.73;6.10;;;20.20;99.90;;;;;;5077187;28;20047;-76
2022/07/19 02:10:59;;;;;;;11.18;6.05;;;20.20;99.90;;;;;;5077114;28;20170;-75
2022/07/19 02:13:25;;;;;;;10.25;5.70;;;20.30;99.90;;;;;;5077106;28;20059;-75
2022/07/19 02:15:51;;;;;;;8.88;6.25;;;20.30;99.90;;;;;;5076031;28;20036;-75
2022/07/19 02:18:17;;;;;;;11.15;6.25;;;20.30;99.90;;;;;;5076899;28;20061;-75
2022/07/19 02:20:43;;;;;;;9.20;5.82;;;20.30;99.90;;;;;;5077192;28;20032;-75
2022/07/19 02:23:09;;;;;;;12.15;6.65;;;20.20;99.90;;;;;;5075696;28;20048;-75
2022/07/19 02:25:34;;;;;;;9.82;6.45;;;20.20;99.90;;;;;;5076001;28;20059;-75
2022/07/19 02:28:00;;;;;;;10.68;7.32;;;20.20;99.90;;;;;;5076851;28;20076;-75
2022/07/19 02:30:28;;;;;;;9.38;7.13;;;20.20;99.90;;;;;;5076577;28;20091;-75
2022/07/19 02:32:53;;;;;;;11.38;6.78;;;20.10;99.90;;;;;;5075330;28;20040;-75
2022/07/19 02:35:19;;;;;;;11.50;7.40;;;20.00;99.90;;;;;;5076557;28;20115;-74
2022/07/19 02:37:45;;;;;;;12.23;7.35;;;20.00;99.90;;;;;;5076527;28;20044;-75
2022/07/19 02:40:11;;;;;;;11.13;6.88;;;20.00;99.90;;;;;;5076560;28;20127;-75
2022/07/19 02:42:37;;;;;;;11.25;7.15;;;20.10;99.90;;;;;;5076744;28;20098;-75
2022/07/19 02:45:04;;;;;;;9.90;6.65;;;20.10;99.90;;;;;;5076464;28;20123;-75
2022/07/19 02:47:30;;;;;;;13.93;7.30;;;20.00;99.90;;;;;;5076484;28;20482;-75
2022/07/19 02:49:56;;;;;;;9.63;7.18;;;20.00;99.90;;;;;;5075403;28;20048;-75
2022/07/19 02:52:21;;;;;;;12.88;7.40;;;20.00;99.90;;;;;;5076430;28;20093;-78
2022/07/19 02:54:47;;;;;;;14.45;7.20;;;19.90;99.90;;;;;;5076440;28;20421;-75
2022/07/19 02:57:13;;;;;;;10.20;7.28;;;19.90;99.90;;;;;;5076520;28;20039;-75
2022/07/19 02:59:38;;;;;;;11.55;7.35;;;19.90;99.90;;;;;;5075789;28;20073;-75
2022/07/19 03:02:04;;;;;;;10.80;7.80;;;19.90;99.90;;;;;;5075884;28;20350;-75
2022/07/19 03:04:30;;;;;;;12.23;7.95;;;19.90;99.90;;;;;;5076575;28;20052;-75
2022/07/19 03:06:55;;;;;;;13.05;7.05;;;19.90;99.90;;;;;;5076450;28;20071;-75
2022/07/19 03:09:21;;;;;;;10.75;7.63;;;19.90;99.90;;;;;;5041800;28;20068;-80
2022/07/19 03:11:47;;;;;;;11.30;7.15;;;20.00;99.90;;;;;;5075247;28;20094;-74
2022/07/19 03:14:13;;;;;;;13.02;7.60;;;20.00;99.90;;;;;;5076273;28;20039;-75
2022/07/19 03:16:38;;;;;;;11.38;7.68;;;20.00;99.90;;;;;;5076452;28;20429;-75
2022/07/19 03:19:04;;;;;;;12.60;7.72;;;20.00;99.90;;;;;;5079735;28;20391;-75
2022/07/19 03:21:30;;;;;;;11.93;7.57;;;20.00;99.90;;;;;;5080559;28;20338;-76
2022/07/19 03:23:56;;;;;;;12.82;7.20;;;20.00;99.90;;;;;;5079419;28;20433;-75
2022/07/19 03:26:21;;;;;;;13.00;7.63;;;20.00;99.90;;;;;;5080087;28;20055;-75
2022/07/19 03:28:47;;;;;;;12.88;7.18;;;20.00;99.90;;;;;;5080159;28;20040;-75
2022/07/19 03:31:13;;;;;;;12.95;8.18;;;19.90;99.90;;;;;;5080001;28;20102;-75
2022/07/19 03:33:38;;;;;;;11.05;7.20;;;20.00;99.90;;;;;;5079983;28;20093;-75
2022/07/19 03:36:04;;;;;;;14.23;8.15;;;20.10;99.90;;;;;;5080024;28;20123;-75
2022/07/19 03:38:30;;;;;;;12.27;7.90;;;20.00;99.90;;;;;;5079706;28;20052;-75
2022/07/19 03:40:55;;;;;;;11.60;7.32;;;20.10;99.90;;;;;;5080035;28;20047;-75
2022/07/19 03:43:23;;;;;;;13.40;7.32;;;20.00;99.90;;;;;;5078838;28;20078;-75
2022/07/19 03:45:48;;;;;;;11.65;7.32;;;20.00;99.90;;;;;;5079765;28;20047;-75
2022/07/19 03:48:14;;;;;;;11.27;7.35;;;20.10;99.90;;;;;;5079981;28;20041;-75
2022/07/19 03:50:40;;;;;;;12.57;7.43;;;20.10;99.90;;;;;;5079667;28;20400;-74
2022/07/19 03:53:07;;;;;;;11.93;7.15;;;20.10;99.90;;;;;;5079447;28;20132;-75
2022/07/19 03:55:33;;;;;;;12.43;7.43;;;20.10;99.90;;;;;;5079658;28;20052;-75
2022/07/19 03:57:58;;;;;;;13.63;8.60;;;20.10;99.90;;;;;;5079773;28;20043;-75
2022/07/19 04:00:24;;;;;;;10.93;7.13;;;20.10;99.90;;;;;;5079433;28;20123;-75
2022/07/19 04:02:50;;;;;;;13.10;7.25;;;20.20;99.90;;;;;;5079359;28;20062;-75
2022/07/19 04:05:16;;;;;;;12.38;7.53;;;20.20;99.90;;;;;;5079655;28;20044;-75
2022/07/19 04:07:41;;;;;;;10.80;7.22;;;20.20;99.90;;;;;;5079214;28;20089;-75
2022/07/19 04:10:08;;;;;;;11.30;7.75;;;20.20;99.90;;;;;;5079641;28;20123;-75
2022/07/19 04:12:34;;;;;;;9.32;6.82;;;20.20;99.90;;;;;;5078103;28;20127;-75
2022/07/19 04:15:00;;;;;;;11.38;7.03;;;20.20;99.90;;;;;;5079546;28;20028;-75
2022/07/19 04:17:26;;;;;;;12.88;7.75;;;20.30;99.90;;;;;;5079154;28;20086;-75
2022/07/19 04:19:52;;;;;;;11.32;7.72;;;20.30;99.90;;;;;;5079177;28;20169;-76
2022/07/19 04:22:18;;;;;;;10.93;7.00;;;20.30;99.90;;;;;;5078337;28;20073;-74
2022/07/19 04:24:44;;;;;;;14.13;8.07;;;20.30;99.90;;;;;;5079187;28;20345;-75
2022/07/19 04:27:10;;;;;;;11.75;7.15;;;20.40;99.90;;;;;;5079176;28;20044;-75
2022/07/19 04:29:36;;;;;;;9.88;6.85;;;20.40;99.90;;;;;;5078812;28;20402;-75
2022/07/19 04:32:01;;;;;;;11.75;7.10;;;20.40;99.90;;;;;;5078786;28;20048;-75
2022/07/19 04:34:27;;;;;;;11.93;7.20;;;20.40;99.90;;;;;;5077937;28;20035;-74
2022/07/19 04:36:52;;;;;;;10.07;6.47;;;20.60;99.90;;;;;;5078858;28;20417;-75
2022/07/19 04:39:18;;;;;;;10.73;6.82;;;20.70;99.90;;;;;;5078778;28;20115;-75
2022/07/19 04:41:44;;;;;;;13.80;7.18;;;20.70;99.90;;;;;;5078665;28;20508;-75
2022/07/19 04:44:09;;;;;;;11.20;6.13;;;20.80;99.90;;;;;;5077654;28;20126;-74
2022/07/19 04:46:35;;;;;;;9.48;6.28;;;20.80;99.90;;;;;;5078652;28;20037;-75
2022/07/19 04:49:01;;;;;;;9.80;6.15;;;20.70;99.90;;;;;;5077933;28;20047;-75
2022/07/19 04:51:26;;;;;;;9.65;6.72;;;20.80;99.90;;;;;;5078489;28;20071;-74
2022/07/19 04:53:52;;;;;;;14.02;5.70;;;20.80;99.90;;;;;;5077815;28;20067;-75
2022/07/19 04:56:18;;;;;;;12.10;6.15;;;20.80;99.90;;;;;;5078510;28;20315;-74
2022/07/19 04:58:43;;;;;;;10.60;6.05;;;20.90;99.90;;;;;;5078589;28;20040;-74
2022/07/19 05:01:09;;;;;;;13.07;5.80;;;21.00;99.90;;;;;;5077519;28;20047;-75
2022/07/19 05:03:35;;;;;;;9.73;6.57;;;21.00;99.90;;;;;;5077903;28;20036;-75
2022/07/19 05:06:00;;;;;;;10.30;5.25;;;21.20;99.90;;;;;;5078154;28;20044;-75
2022/07/19 05:08:26;;;;;;;9.27;5.88;;;21.30;99.90;;;;;;5078343;28;20033;-74
2022/07/19 05:10:52;;;;;;;9.88;6.65;;;21.40;99.90;;;;;;5078382;28;20414;-75
2022/07/19 05:13:17;;;;;;;11.65;6.57;;;21.60;99.90;;;;;;5078188;28;20117;-75
2022/07/19 05:15:43;;;;;;;8.70;5.65;;;21.70;99.90;;;;;;5077311;28;20090;-75
2022/07/19 05:18:09;;;;;;;15.18;5.72;;;21.80;99.90;;;;;;5078025;28;20051;-75
2022/07/19 05:20:34;;;;;;;8.90;5.05;;;22.00;99.90;;;;;;5078213;28;20090;-75
2022/07/19 05:23:00;;;;;;;10.90;5.40;;;22.10;99.90;;;;;;5077828;28;20087;-75
2022/07/19 05:25:25;;;;;;;8.00;4.78;;;22.40;99.90;;;;;;5077906;28;20052;-75
2022/07/19 05:27:51;;;;;;;7.10;4.72;;;22.60;99.90;;;;;;5078115;28;20040;-74
2022/07/19 05:30:17;;;;;;;8.65;4.60;;;22.80;99.90;;;;;;5077692;28;20052;-75
2022/07/19 05:32:43;;;;;;;9.57;5.13;;;22.90;99.90;;;;;;5077531;28;20040;-75
2022/07/19 05:35:09;;;;;;;9.90;5.68;;;22.90;99.90;;;;;;5077558;28;20315;-75
2022/07/19 05:37:35;;;;;;;9.95;5.75;;;22.90;99.90;;;;;;5076653;28;20106;-75
2022/07/19 05:40:00;;;;;;;9.95;5.25;;;22.90;99.90;;;;;;5075934;28;20036;-75
2022/07/19 05:42:26;;;;;;;12.23;6.25;;;23.00;99.90;;;;;;5059982;28;20119;-75
2022/07/19 05:44:52;;;;;;;14.30;6.40;;;23.00;99.90;;;;;;5077467;28;20119;-75
2022/07/19 05:47:17;;;;;;;12.23;6.10;;;23.10;99.90;;;;;;5077393;28;20136;-74
2022/07/19 05:49:43;;;;;;;11.55;6.28;;;23.10;99.90;;;;;;5077578;28;20040;-75
2022/07/19 05:52:09;;;;;;;9.65;5.13;;;23.20;99.90;;;;;;5077433;28;20051;-75
2022/07/19 05:54:35;;;;;;;12.23;6.30;;;23.20;99.90;;;;;;5077278;28;20040;-74
2022/07/19 05:57:00;;;;;;;12.25;5.55;;;23.30;99.90;;;;;;5077134;28;20040;-74
2022/07/19 05:59:26;;;;;;;9.63;5.60;;;23.30;99.90;;;;;;5077514;28;20040;-75
2022/07/19 06:01:52;;;;;;;9.98;5.20;;;23.40;99.90;;;;;;5092617;28;20410;-75
2022/07/19 06:04:17;;;;;;;13.35;6.38;;;23.40;99.90;;;;;;5077003;28;20044;-75
2022/07/19 06:06:43;;;;;;;11.00;5.03;;;23.40;99.90;;;;;;5077397;28;20068;-74
2022/07/19 06:09:11;;;;;;;10.85;5.35;;;23.50;99.90;;;;;;5076960;28;20477;-75
2022/07/19 06:11:39;;;;;;;10.05;5.68;;;23.60;99.90;;;;;;5075885;28;20127;-75
2022/07/19 06:14:06;;;;;;;11.20;5.47;;;23.70;99.90;;;;;;5076870;28;20310;-75
2022/07/19 06:16:32;;;;;;;8.35;5.00;;;23.90;99.90;;;;;;5077234;28;20079;-75
2022/07/19 06:18:58;;;;;;;9.32;5.45;;;23.90;99.90;;;;;;5075685;28;20385;-75
2022/07/19 06:21:23;;;;;;;12.30;5.32;;;23.90;99.90;;;;;;5075813;28;20091;-74
2022/07/19 06:23:49;;;;;;;11.38;5.15;;;24.00;99.90;;;;;;5076903;28;20079;-75
2022/07/19 06:26:15;;;;;;;11.90;6.07;;;24.10;99.90;;;;;;5076881;28;20360;-75
2022/07/19 06:28:41;;;;;;;10.52;6.28;;;24.20;99.90;;;;;;5076164;28;20048;-75
2022/07/19 06:31:11;;;;;;;10.07;5.82;;;24.40;99.90;;;;;;5076468;28;20369;-75
2022/07/19 06:33:42;;;;;;;9.43;5.32;;;24.50;99.90;;;;;;5076344;28;20111;-75
2022/07/19 06:36:08;;;;;;;10.35;5.65;;;24.50;99.90;;;;;;5076636;28;20048;-76
2022/07/19 06:38:34;;;;;;;9.35;5.03;;;24.60;99.90;;;;;;5076940;28;20048;-75
2022/07/19 06:41:00;;;;;;;9.93;4.95;;;24.70;99.90;;;;;;5076439;28;20045;-75
2022/07/19 06:43:26;;;;;;;9.68;5.47;;;24.80;99.90;;;;;;5076809;28;20029;-75
2022/07/19 06:45:51;;;;;;;9.55;5.18;;;25.00;99.90;;;;;;5075413;28;20170;-75
2022/07/19 06:48:17;;;;;;;9.93;5.13;;;25.30;99.90;;;;;;5075406;28;20075;-75
2022/07/19 06:50:43;;;;;;;10.00;5.45;;;25.40;99.90;;;;;;5076630;28;20050;-75
2022/07/19 06:53:09;;;;;;;8.88;4.80;;;25.30;99.90;;;;;;5075652;28;20029;-75
2022/07/19 06:55:35;;;;;;;7.20;4.60;;;25.50;99.90;;;;;;5076691;28;20037;-75
2022/07/19 06:58:01;;;;;;;9.63;4.85;;;25.60;99.90;;;;;;5076517;28;20039;-75
2022/07/19 07:00:26;;;;;;;10.82;4.88;;;25.70;99.90;;;;;;5075605;28;20048;-70
2022/07/19 07:02:52;;;;;;;11.00;4.35;;;25.80;99.90;;;;;;5075849;28;20459;-71
2022/07/19 07:05:18;;;;;;;9.55;4.45;;;25.90;99.90;;;;;;5076419;28;20154;-73
2022/07/19 07:07:44;;;;;;;10.38;4.55;;;25.80;99.90;;;;;;5076315;28;20123;-71
2022/07/19 07:10:10;;;;;;;9.52;4.50;;;26.00;99.90;;;;;;5076407;28;20048;-71
2022/07/19 07:12:36;;;;;;;12.05;5.50;;;26.10;99.90;;;;;;5076110;28;20043;-71
2022/07/19 07:15:02;;;;;;;9.55;5.20;;;26.10;99.90;;;;;;5076451;28;20047;-72
2022/07/19 07:17:28;;;;;;;10.82;5.30;;;26.10;99.90;;;;;;5076177;28;20076;-72
2022/07/19 07:19:54;;;;;;;10.82;4.63;;;26.20;99.90;;;;;;5076252;28;20068;-71
2022/07/19 07:22:19;;;;;;;11.38;5.10;;;26.40;99.90;;;;;;5075485;28;20041;-71
2022/07/19 07:24:45;;;;;;;9.68;4.95;;;26.40;99.90;;;;;;5076194;28;20040;-70
2022/07/19 07:27:11;;;;;;;7.75;4.70;;;26.30;99.90;;;;;;5076209;28;20032;-71
2022/07/19 07:29:36;;;;;;;7.13;4.55;;;26.30;99.90;;;;;;5077406;28;20084;-72
2022/07/19 07:32:02;;;;;;;15.65;5.05;;;26.40;99.90;;;;;;5078579;28;20392;-73
2022/07/19 07:34:28;;;;;;;9.32;4.55;;;26.40;99.90;;;;;;5075015;28;20109;-71
2022/07/19 07:36:53;;;;;;;10.45;4.40;;;26.50;99.90;;;;;;5076098;28;20063;-70
2022/07/19 07:39:19;;;;;;;13.40;4.90;;;26.60;99.90;;;;;;5076126;28;20072;-70
2022/07/19 07:41:45;;;;;;;8.35;4.90;;;26.80;99.90;;;;;;5076029;28;20044;-70
2022/07/19 07:44:11;;;;;;;8.02;4.60;;;26.90;99.90;;;;;;5074979;28;20121;-70
2022/07/19 07:46:36;;;;;;;20.10;5.63;;;26.90;99.90;;;;;;5075966;28;20040;-71
2022/07/19 07:49:02;;;;;;;13.10;4.55;;;27.10;99.90;;;;;;5075099;28;20052;-71
2022/07/19 07:51:28;;;;;;;10.40;4.45;;;27.20;99.90;;;;;;5075778;28;20386;-70
2022/07/19 07:53:53;;;;;;;8.55;3.70;;;27.20;99.90;;;;;;5075908;28;20060;-71
2022/07/19 07:56:19;;;;;;;7.15;3.97;;;27.40;99.90;;;;;;5075925;28;20418;-70
2022/07/19 07:58:45;;;;;;;7.28;4.13;;;27.60;99.90;;;;;;5075758;28;20330;-71
2022/07/19 08:01:10;;;;;;;10.00;4.50;;;27.70;99.90;;;;;;5075679;28;20044;-71
2022/07/19 08:03:36;;;;;;;6.97;3.92;;;27.80;99.90;;;;;;5076448;28;20421;-71
2022/07/19 08:06:04;;;;;;;7.25;3.67;;;27.90;99.90;;;;;;5079606;28;20041;-71
2022/07/19 08:08:29;;;;;;;10.07;3.83;;;28.00;99.90;;;;;;5079229;28;20032;-71
2022/07/19 08:10:56;;;;;;;8.80;4.68;;;28.10;99.90;;;;;;5079475;28;20037;-70
2022/07/19 08:13:23;;;;;;;7.32;3.90;;;28.10;99.90;;;;;;5080925;28;20102;-70
2022/07/19 08:15:49;;;;;;;5.53;3.83;;;28.10;99.90;;;;;;5096654;28;20131;-71
2022/07/19 08:18:16;;;;;;;14.45;4.25;;;28.20;99.90;;;;;;5095032;28;20440;-70
2022/07/19 08:20:42;;;;;;;10.25;4.03;;;28.20;99.90;;;;;;5079173;28;20064;-71
2022/07/19 08:23:07;;;;;;;12.70;4.03;;;28.40;99.90;;;;;;5079666;28;20040;-71
2022/07/19 08:25:34;;;;;;;5.70;3.50;;;28.50;99.90;;;;;;5078928;28;20063;-71
2022/07/19 08:28:00;;;;;;;10.60;4.03;;;28.50;99.90;;;;;;5078944;28;20041;-70
2022/07/19 08:30:26;;;;;;;5.88;3.50;;;28.60;99.90;;;;;;5078311;28;20106;-71
2022/07/19 08:32:52;;;;;;;8.27;3.83;;;28.80;99.90;;;;;;5097077;28;20043;-75
2022/07/19 08:35:18;;;;;;;5.82;3.60;;;28.80;99.90;;;;;;5098297;28;20120;-74
2022/07/19 08:37:43;;;;;;;6.25;3.28;;;28.90;99.90;;;;;;5099063;28;20089;-73
2022/07/19 08:40:10;;;;;;;8.68;3.35;;;29.10;99.90;;;;;;5095641;28;20039;-72
2022/07/19 08:42:36;;;;;;;7.80;3.75;;;29.20;99.90;;;;;;5078590;28;20048;-70
2022/07/19 08:45:04;;;;;;;5.15;2.95;;;29.40;99.90;;;;;;5078377;28;20113;-73
2022/07/19 08:47:31;;;;;;;5.78;3.28;;;29.50;99.90;;;;;;5078546;28;20422;-70
2022/07/19 08:49:59;;;;;;;9.63;3.42;;;29.80;99.90;;;;;;5086644;28;20048;-71
2022/07/19 08:52:25;;;;;;;11.05;3.70;;;30.00;99.90;;;;;;5097570;28;20421;-71
2022/07/19 08:54:51;;;;;;;6.82;3.63;;;30.20;99.90;;;;;;5097664;28;20036;-71
2022/07/19 09:00:06;;;;;;;4.65;3.20;;;30.20;99.90;;;;;;5078466;28;20342;-71
2022/07/19 09:02:31;;;;;;;10.68;3.20;;;30.30;99.90;;;;;;5077717;28;20048;-71
2022/07/19 09:05:01;;;;;;;5.80;2.75;;;30.40;99.90;;;;;;5078215;28;20123;-71
2022/07/19 09:07:27;;;;;;;8.00;2.88;;;30.40;99.80;;;;;;5077950;28;20157;-71
2022/07/19 09:10:14;;;;;;;8.68;3.15;;;30.60;99.80;;;;;;5096890;28;20049;-72
2022/07/19 09:12:57;;;;;;;6.20;3.28;;;30.80;99.90;;;;;;5097874;28;20322;-72
2022/07/19 09:15:36;;;;;;;5.00;2.78;;;30.90;99.90;;;;;;5083791;28;20044;-74
2022/07/19 09:18:11;;;;;;;4.95;3.17;;;31.10;99.90;;;;;;5077900;28;20072;-71
2022/07/19 09:20:37;;;;;;;7.00;3.40;;;31.10;99.20;;;;;;5078131;28;20036;-76
2022/07/19 09:23:04;;;;;;;5.80;3.50;;;31.20;99.40;;;;;;5094489;28;20032;-73
2022/07/19 09:25:41;;;;;;;6.35;3.13;;;31.30;99.40;;;;;;5095313;28;20119;-70
2022/07/19 09:28:08;;;;;;;4.38;2.95;;;31.50;99.40;;;;;;5076671;28;20036;-70
2022/07/19 09:30:40;;;;;;;7.07;3.17;;;31.70;99.90;;;;;;5077581;28;20057;-69
2022/07/19 09:33:12;;;;;;;8.48;2.97;;;31.80;99.60;;;;;;5077703;28;20039;-70
2022/07/19 09:35:52;;;;;;;6.65;3.15;;;31.80;99.20;;;;;;5077848;28;20040;-70
2022/07/19 09:38:30;;;;;;;6.35;2.72;;;31.90;99.40;;;;;;5077817;28;20032;-69
2022/07/19 09:41:10;;;;;;;8.35;3.10;;;32.00;98.90;;;;;;5076785;28;20032;-70
2022/07/19 09:43:58;;;;;;;4.45;2.70;;;32.20;99.20;;;;;;5086058;28;20049;-72
2022/07/19 09:46:32;;;;;;;7.50;3.30;;;32.20;99.20;;;;;;5087047;28;20024;-76
2022/07/19 09:49:06;;;;;;;5.03;2.90;;;32.30;99.10;;;;;;5089057;28;20082;-71
2022/07/19 09:51:34;;;;;;;4.63;2.83;;;32.40;99.10;;;;;;5076683;28;20040;-71
2022/07/19 09:54:03;;;;;;;7.53;3.10;;;32.60;98.90;;;;;;5077360;28;20149;-70
2022/07/19 09:56:30;;;;;;;5.88;2.65;;;32.80;98.90;;;;;;5110515;28;20298;-71
2022/07/19 09:58:58;;;;;;;6.68;2.60;;;32.70;98.70;;;;;;5077466;28;20037;-70
2022/07/19 10:01:24;;;;;;;6.00;2.38;;;32.80;98.50;;;;;;5077224;28;20045;-70
2022/07/19 10:03:54;;;;;;;6.85;2.60;;;32.80;98.50;;;;;;5077055;28;20053;-70
2022/07/19 10:06:20;;;;;;;6.50;2.40;;;32.90;98.60;;;;;;5076161;28;20071;-70
2022/07/19 10:08:46;;;;;;;5.32;2.75;;;33.00;98.30;;;;;;5077142;28;20434;-70
2022/07/19 10:11:12;;;;;;;5.22;2.28;;;33.00;98.70;;;;;;5077076;28;20045;-71
2022/07/19 10:13:38;;;;;;;5.35;2.58;;;33.00;98.40;;;;;;5077300;28;20174;-70
2022/07/19 10:16:10;;;;;;;6.88;2.13;;;33.10;98.00;;;;;;5076904;28;20373;-70
2022/07/19 10:18:44;;;;;;;7.57;2.47;;;33.10;98.50;;;;;;5076922;28;20698;-71
2022/07/19 10:21:10;;;;;;;7.90;2.25;;;33.50;98.20;;;;;;5077183;28;20047;-71
2022/07/19 10:23:37;;;;;;;6.88;2.22;;;33.60;97.40;;;;;;5075990;28;20110;-71
2022/07/19 10:26:02;;;;;;;3.30;2.30;;;33.80;97.70;;;;;;5076939;28;20049;-72
2022/07/19 10:28:37;;;;;;;4.60;2.03;;;33.90;97.40;;;;;;5076859;28;20040;-72
2022/07/19 10:31:22;;;;;;;4.88;2.00;;;34.00;97.00;;;;;;5075787;28;20430;-73
2022/07/19 10:34:02;;;;;;;7.55;2.22;;;34.10;96.50;;;;;;5076215;28;20082;-72
2022/07/19 10:36:33;;;;;;;5.57;2.08;;;34.10;96.40;;;;;;5076805;28;20098;-71
2022/07/19 10:39:18;;;;;;;5.25;2.00;;;34.10;96.20;;;;;;5077301;28;20425;-71
2022/07/19 10:42:03;;;;;;;3.13;1.75;;;34.10;96.60;;;;;;5109532;28;20325;-71
2022/07/19 10:44:29;;;;;;;6.00;2.20;;;34.30;95.90;;;;;;5076519;28;20037;-72
2022/07/19 10:46:55;;;;;;;6.97;2.03;;;34.50;95.60;;;;;;5076855;28;20033;-72
2022/07/19 10:49:44;;;;;;;4.30;1.75;;;34.40;95.40;;;;;;5109558;28;20036;-74
2022/07/19 10:52:28;;;;;;;5.22;2.03;;;34.50;95.60;;;;;;5076667;28;20318;-72
2022/07/19 10:55:15;;;;;;;5.68;1.70;;;34.50;95.10;;;;;;5076571;28;20048;-71
2022/07/19 10:57:42;;;;;;;5.07;1.80;;;34.70;95.30;;;;;;5076662;28;20044;-73
2022/07/19 11:00:28;;;;;;;4.60;2.10;;;34.80;94.90;;;;;;5076348;28;20437;-72
2022/07/19 11:03:22;;;;;;;5.18;2.05;;;34.80;95.80;;;;;;5108880;28;20052;-72
2022/07/19 11:05:55;;;;;;;3.60;2.03;;;34.90;95.70;;;;;;5076448;28;20051;-71
2022/07/19 11:08:41;;;;;;;6.85;1.90;;;35.00;95.50;;;;;;5109319;28;20048;-71
2022/07/19 11:11:14;;;;;;;5.63;2.05;;;35.00;95.70;;;;;;5108945;28;20076;-71
2022/07/19 11:13:44;;;;;;;3.22;2.00;;;35.30;95.90;;;;;;5076563;28;20079;-71
2022/07/19 11:16:10;;;;;;;3.47;1.70;;;35.60;95.60;;;;;;5110727;28;20040;-70
2022/07/19 11:18:36;;;;;;;3.13;1.90;;;35.90;95.90;;;;;;5109355;28;20436;-71
2022/07/19 11:21:04;;;;;;;4.05;2.05;;;36.10;95.30;;;;;;5076216;28;20044;-71
2022/07/19 11:23:32;;;;;;;6.88;2.28;;;36.10;95.30;;;;;;5076329;28;20068;-72
2022/07/19 11:26:20;;;;;;;6.63;2.22;;;36.30;95.20;;;;;;5108990;28;20051;-71
2022/07/19 11:28:48;;;;;;;6.10;2.10;;;36.50;95.00;;;;;;5109514;28;20053;-71
2022/07/19 11:31:17;;;;;;;3.05;1.70;;;36.60;95.60;;;;;;5075965;28;20053;-70
2022/07/19 11:33:45;;;;;;;3.08;1.75;;;36.80;95.20;;;;;;5108620;28;20372;-72
2022/07/19 11:36:11;;;;;;;6.28;1.90;;;36.90;95.00;;;;;;5076353;28;20041;-71
2022/07/19 11:38:43;;;;;;;6.43;2.03;;;36.90;95.00;;;;;;5076971;28;20040;-71
2022/07/19 11:41:18;;;;;;;2.45;1.75;;;37.20;95.80;;;;;;5080011;28;20040;-70
2022/07/19 11:43:51;;;;;;;5.18;2.17;;;37.30;95.10;;;;;;5080254;28;20111;-71
2022/07/19 11:46:17;;;;;;;5.13;1.90;;;37.40;94.80;;;;;;5079860;28;20037;-72
2022/07/19 11:48:43;;;;;;;8.30;1.95;;;37.60;94.70;;;;;;5112891;28;20443;-71
2022/07/19 11:51:10;;;;;;;5.00;1.90;;;37.70;94.50;;;;;;5079904;28;20107;-70
2022/07/19 11:53:39;;;;;;;5.72;2.00;;;37.50;95.00;;;;;;5080091;28;20093;-71
2022/07/19 11:56:17;;;;;;;5.38;1.70;;;37.60;95.20;;;;;;5079568;28;20039;-71
2022/07/19 11:58:43;;;;;;;4.97;1.92;;;37.70;94.80;;;;;;5079879;28;20032;-71
2022/07/19 12:01:09;;;;;;;3.60;1.90;;;38.00;94.60;;;;;;5078692;28;20035;-71
2022/07/19 12:03:35;;;;;;;4.72;2.00;;;38.20;94.40;;;;;;5079087;28;20040;-71
2022/07/19 12:06:07;;;;;;;4.03;2.10;;;38.30;94.60;;;;;;5112405;28;20422;-71
2022/07/19 12:08:40;;;;;;;4.75;1.77;;;38.50;94.50;;;;;;5079572;28;20043;-70
2022/07/19 12:11:46;;;;;;;4.15;1.98;;;38.50;94.20;;;;;;5079375;28;20502;-71
2022/07/19 12:14:29;;;;;;;5.15;1.98;;;38.20;94.10;;;;;;5078710;28;20053;-72
2022/07/19 12:17:31;;;;;;;5.47;2.28;;;38.30;94.50;;;;;;5112276;28;20035;-71
2022/07/19 12:20:10;;;;;;;6.10;2.15;;;37.90;94.00;;;;;;5077508;28;20086;-70
2022/07/19 12:22:38;;;;;;;4.88;1.83;;;37.90;94.10;;;;;;5078970;28;20064;-71
2022/07/19 12:25:08;;;;;;;4.40;1.77;;;38.10;94.40;;;;;;5079280;28;20048;-71
2022/07/19 12:27:34;;;;;;;8.43;2.20;;;38.40;94.00;;;;;;5079293;28;20125;-71
2022/07/19 12:30:03;;;;;;;4.18;1.80;;;38.60;94.00;;;;;;5111586;28;20049;-71
2022/07/19 12:32:38;;;;;;;7.25;2.28;;;38.80;94.70;;;;;;5111396;28;20041;-71
2022/07/19 12:35:11;;;;;;;4.45;1.83;;;38.90;94.20;;;;;;5079099;28;20044;-71
2022/07/19 12:37:42;;;;;;;3.60;1.98;;;38.60;94.00;;;;;;5077914;28;20043;-71
2022/07/19 12:40:14;;;;;;;5.25;1.70;;;38.60;94.20;;;;;;5078774;28;20124;-71
2022/07/19 12:42:39;;;;;;;5.30;1.80;;;38.80;94.10;;;;;;5078603;28;20083;-72
2022/07/19 12:45:07;;;;;;;3.72;1.70;;;38.90;93.40;;;;;;5078700;28;20068;-71
2022/07/19 12:47:32;;;;;;;3.35;1.60;;;39.20;93.60;;;;;;5078687;28;20119;-71
2022/07/19 12:49:58;;;;;;;4.78;1.40;;;39.00;93.20;;;;;;5110413;28;20075;-72